createdAt,value
2023-02-12T00:01:29.792Z,1.83
2023-02-12T00:06:34.466Z,2.43
2023-02-12T00:11:37.707Z,2.50
2023-02-12T00:16:41.171Z,2.50
2023-02-12T00:21:45.825Z,2.00
2023-02-12T00:26:51.083Z,2.17
2023-02-12T00:31:55.610Z,1.80
2023-02-12T00:37:00.034Z,1.80
2023-02-12T00:42:03.272Z,2.00
2023-02-12T00:47:06.826Z,1.77
2023-02-12T00:52:11.551Z,2.20
2023-02-12T00:57:14.862Z,1.73
2023-02-12T01:02:18.273Z,1.43
2023-02-12T01:07:23.573Z,1.57
2023-02-12T01:12:26.980Z,1.43
2023-02-12T01:17:30.791Z,2.20
2023-02-12T01:22:37.827Z,2.47
2023-02-12T01:27:41.156Z,2.43
2023-02-12T01:32:44.691Z,2.43
2023-02-12T01:37:49.316Z,2.40
2023-02-12T01:42:52.516Z,2.37
2023-02-12T01:47:57.040Z,2.70
2023-02-12T01:53:01.664Z,3.00
2023-02-12T01:58:06.122Z,3.40
2023-02-12T02:03:10.302Z,3.30
2023-02-12T02:08:15.027Z,3.37
2023-02-12T02:13:36.150Z,3.40
2023-02-12T02:18:45.705Z,3.63
2023-02-12T02:24:24.303Z,3.40
2023-02-12T02:29:53.818Z,4.00
2023-02-12T02:35:02.068Z,3.67
2023-02-12T02:40:12.592Z,3.43
2023-02-12T02:45:20.132Z,3.43
2023-02-12T02:50:29.045Z,4.40
2023-02-12T02:55:39.830Z,3.83
2023-02-12T03:00:47.371Z,3.73
2023-02-12T03:05:56.632Z,4.20
2023-02-12T03:11:06.050Z,3.80
2023-02-12T03:16:13.047Z,4.20
2023-02-12T03:21:22.728Z,4.40
2023-02-12T03:26:33.935Z,3.97
2023-02-12T03:31:50.673Z,3.80
2023-02-12T03:37:02.240Z,5.00
2023-02-12T03:42:10.387Z,4.67
2023-02-12T03:47:22.018Z,4.90
2023-02-12T03:52:26.700Z,5.13
2023-02-12T03:57:35.272Z,4.20
2023-02-12T04:02:38.912Z,4.43
2023-02-12T04:07:43.498Z,5.10
2023-02-12T04:12:55.592Z,4.67
2023-02-12T04:18:05.996Z,4.93
2023-02-12T04:23:17.959Z,6.30
2023-02-12T04:28:35.090Z,6.07
2023-02-12T04:33:48.469Z,6.13
2023-02-12T04:38:58.261Z,5.60
2023-02-12T04:44:16.109Z,4.13
2023-02-12T04:49:21.436Z,5.43
2023-02-12T04:54:26.164Z,6.57
2023-02-12T04:59:29.542Z,4.73
2023-02-12T05:04:32.671Z,5.33
2023-02-12T05:09:37.319Z,3.90
2023-02-12T05:14:40.785Z,2.90
2023-02-12T05:19:43.894Z,3.30
2023-02-12T05:24:48.553Z,3.83
2023-02-12T05:29:51.876Z,5.13
2023-02-12T05:34:55.320Z,4.30
2023-02-12T05:40:00.163Z,4.40
2023-02-12T05:45:03.596Z,4.10
2023-02-12T05:50:08.351Z,3.53
2023-02-12T05:55:13.243Z,3.70
2023-02-12T06:00:17.456Z,4.10
2023-02-12T06:05:20.596Z,5.10
2023-02-12T06:10:25.337Z,3.40
2023-02-12T06:15:28.611Z,3.10
2023-02-12T06:20:31.989Z,3.10
2023-02-12T06:25:36.611Z,2.63
2023-02-12T06:30:39.771Z,2.70
2023-02-12T06:35:43.234Z,2.60
2023-02-12T06:40:48.013Z,2.60
2023-02-12T06:45:51.372Z,2.43
2023-02-12T06:50:54.687Z,2.43
2023-02-12T06:56:01.254Z,2.50
2023-02-12T07:01:13.564Z,2.23
2023-02-12T07:06:17.334Z,2.93
2023-02-12T07:11:25.194Z,2.80
2023-02-12T07:16:29.168Z,2.43
2023-02-12T07:21:33.268Z,2.30
2023-02-12T07:26:38.457Z,3.20
2023-02-12T07:31:41.832Z,2.87
2023-02-12T07:36:45.111Z,3.37
2023-02-12T07:41:49.733Z,3.07
2023-02-12T07:46:53.048Z,3.67
2023-02-12T07:51:57.034Z,3.77
2023-02-12T07:57:02.041Z,3.70
2023-02-12T08:02:05.554Z,4.13
2023-02-12T08:07:09.074Z,5.27
2023-02-12T08:12:13.960Z,4.37
2023-02-12T08:17:17.671Z,3.90
2023-02-12T08:22:21.497Z,4.50
2023-02-12T08:27:26.289Z,5.90
2023-02-12T08:32:31.604Z,5.80
2023-02-12T08:37:35.258Z,5.57
2023-02-12T08:42:40.392Z,4.30
2023-02-12T08:47:43.797Z,3.97
2023-02-12T08:52:47.464Z,5.03
2023-02-12T08:57:58.083Z,4.13
2023-02-12T09:03:01.588Z,5.80
2023-02-12T09:08:05.542Z,4.23
2023-02-12T09:13:11.727Z,5.00
2023-02-12T09:18:16.271Z,5.47
2023-02-12T09:23:19.899Z,6.23
2023-02-12T09:28:25.294Z,5.83
2023-02-12T09:33:29.579Z,6.20
2023-02-12T09:38:35.033Z,5.83
2023-02-12T09:43:45.559Z,4.90
2023-02-12T09:49:01.455Z,4.80
2023-02-12T09:54:07.502Z,4.83
2023-02-12T09:59:19.476Z,4.60
2023-02-12T10:04:25.777Z,4.23
2023-02-12T10:09:52.914Z,5.13
2023-02-12T10:15:18.543Z,4.60
2023-02-12T10:21:05.275Z,4.30
2023-02-12T10:26:18.483Z,3.57
2023-02-12T10:31:30.572Z,3.50
2023-02-12T10:36:41.576Z,4.17
2023-02-12T10:41:48.799Z,3.67
2023-02-12T10:46:53.730Z,3.50
2023-02-12T10:52:03.647Z,3.93
2023-02-12T10:57:12.558Z,3.70
2023-02-12T11:02:27.712Z,3.47
2023-02-12T11:07:46.889Z,3.57
2023-02-12T11:12:50.105Z,4.20
2023-02-12T11:18:00.495Z,3.30
2023-02-12T11:23:06.724Z,3.00
2023-02-12T11:28:18.135Z,3.50
2023-02-12T11:33:32.089Z,4.20
2023-02-12T11:38:38.748Z,3.47
2023-02-12T11:43:41.938Z,2.83
2023-02-12T11:48:48.573Z,2.73
2023-02-12T11:53:54.097Z,2.57
2023-02-12T11:59:17.981Z,6.07
2023-02-12T12:04:25.281Z,1.63
2023-02-12T12:09:35.863Z,2.03
2023-02-12T12:14:57.828Z,5.83
2023-02-12T12:20:10.291Z,2.67
2023-02-12T12:25:27.394Z,2.80
2023-02-12T12:30:52.809Z,2.67
2023-02-12T12:36:14.068Z,2.10
2023-02-12T12:41:28.989Z,1.57
2023-02-12T12:46:58.490Z,1.60
2023-02-12T12:52:32.610Z,1.57
2023-02-12T12:57:50.993Z,2.00
2023-02-12T13:03:24.343Z,1.73
2023-02-12T13:08:51.120Z,1.93
2023-02-12T13:14:02.777Z,1.80
2023-02-12T13:19:15.935Z,1.50
2023-02-12T13:24:26.984Z,2.20
2023-02-12T13:29:36.462Z,1.83
2023-02-12T13:34:42.212Z,1.93
2023-02-12T13:39:49.514Z,1.83
2023-02-12T13:45:02.788Z,2.10
2023-02-12T13:50:12.385Z,2.73
2023-02-12T13:55:24.656Z,6.13
2023-02-12T14:00:59.049Z,3.17
2023-02-12T14:06:14.326Z,4.30
2023-02-12T14:11:21.249Z,2.20
2023-02-12T14:16:41.617Z,2.70
2023-02-12T14:21:45.382Z,2.30
2023-02-12T14:26:50.850Z,3.03
2023-02-12T14:31:54.367Z,2.80
2023-02-12T14:37:13.714Z,3.10
2023-02-12T14:42:56.838Z,2.57
2023-02-12T14:48:00.484Z,4.53
2023-02-12T14:53:27.097Z,4.80
2023-02-12T14:58:33.717Z,2.80
2023-02-12T15:03:44.129Z,2.83
2023-02-12T15:08:53.077Z,3.57
2023-02-12T15:14:02.087Z,3.30
2023-02-12T15:19:14.839Z,3.10
2023-02-12T15:24:24.519Z,3.60
2023-02-12T15:29:33.129Z,3.63
2023-02-12T15:34:40.125Z,14.70
2023-02-12T15:39:46.044Z,9.40
2023-02-12T15:44:50.754Z,7.50
2023-02-12T15:50:00.890Z,4.63
2023-02-12T15:55:06.182Z,3.33
2023-02-12T16:00:22.563Z,3.67
2023-02-12T16:05:26.935Z,3.13
2023-02-12T16:10:30.581Z,3.70
2023-02-12T16:15:38.243Z,5.80
2023-02-12T16:20:43.905Z,13.37
2023-02-12T16:25:55.829Z,4.00
2023-02-12T16:31:11.481Z,3.10
2023-02-12T16:36:28.493Z,2.03
2023-02-12T16:41:33.477Z,2.07
2023-02-12T16:46:46.926Z,3.20
2023-02-12T16:51:51.256Z,2.30
2023-02-12T16:56:54.766Z,2.13
2023-02-12T17:02:02.195Z,2.40
2023-02-12T17:07:10.985Z,1.70
2023-02-12T17:12:14.875Z,2.53
2023-02-12T17:17:20.771Z,2.10
2023-02-12T17:22:27.458Z,2.10
2023-02-12T17:27:30.812Z,2.40
2023-02-12T17:32:35.710Z,1.87
2023-02-12T17:37:39.294Z,2.13
2023-02-12T17:42:42.480Z,2.23
2023-02-12T17:47:47.356Z,6.60
2023-02-12T17:52:50.565Z,3.30
2023-02-12T17:57:54.947Z,2.53
2023-02-12T18:02:59.664Z,1.90
2023-02-12T18:08:03.587Z,2.50
2023-02-12T18:13:07.019Z,2.40
2023-02-12T18:18:11.748Z,2.90
2023-02-12T18:23:15.010Z,6.83
2023-02-12T18:28:18.397Z,5.13
2023-02-12T18:33:23.112Z,4.70
2023-02-12T18:38:26.564Z,4.63
2023-02-12T18:43:30.357Z,5.53
2023-02-12T18:48:35.137Z,5.03
2023-02-12T18:53:39.551Z,4.60
2023-02-12T18:58:42.957Z,4.10
2023-02-12T19:03:48.702Z,3.23
2023-02-12T19:08:56.518Z,2.80
2023-02-12T19:14:00.338Z,3.07
2023-02-12T19:19:05.488Z,3.30
2023-02-12T19:24:12.357Z,3.60
2023-02-12T19:29:16.633Z,3.40
2023-02-12T19:34:23.432Z,4.10
2023-02-12T19:39:27.571Z,2.00
2023-02-12T19:44:30.980Z,2.37
2023-02-12T19:49:38.056Z,2.03
2023-02-12T19:54:41.642Z,1.97
2023-02-12T19:59:46.597Z,1.90
2023-02-12T20:04:51.338Z,1.80
2023-02-12T20:09:55.136Z,2.27
2023-02-12T20:15:01.071Z,2.10
2023-02-12T20:20:06.648Z,1.70
2023-02-12T20:25:10.205Z,1.67
2023-02-12T20:30:15.909Z,2.10
2023-02-12T20:35:20.751Z,3.30
2023-02-12T20:40:24.011Z,2.10
2023-02-12T20:45:28.222Z,2.27
2023-02-12T20:50:34.072Z,2.20
2023-02-12T20:55:37.592Z,1.53
2023-02-12T21:00:41.024Z,1.83
2023-02-12T21:05:45.555Z,1.37
2023-02-12T21:10:49.399Z,1.57
2023-02-12T21:15:55.268Z,1.27
2023-02-12T21:21:04.422Z,1.20
2023-02-12T21:26:10.278Z,1.10
2023-02-12T21:31:15.550Z,0.97
2023-02-12T21:36:25.557Z,1.23
2023-02-12T21:41:31.391Z,0.90
2023-02-12T21:46:35.588Z,0.80
2023-02-12T21:51:41.614Z,1.30
2023-02-12T21:56:48.276Z,1.30
2023-02-12T22:01:53.273Z,0.90
2023-02-12T22:07:02.968Z,1.10
2023-02-12T22:12:06.766Z,1.00
2023-02-12T22:17:09.962Z,0.97
2023-02-12T22:22:14.635Z,1.07
2023-02-12T22:27:17.904Z,0.97
2023-02-12T22:32:21.099Z,1.47
2023-02-12T22:37:25.890Z,1.20
2023-02-12T22:42:29.078Z,1.27
2023-02-12T22:47:33.381Z,0.70
2023-02-12T22:52:38.128Z,1.10
2023-02-12T22:57:41.703Z,1.20
2023-02-12T23:02:44.777Z,1.70
2023-02-12T23:07:49.540Z,1.57
2023-02-12T23:12:52.807Z,1.03
2023-02-12T23:17:56.070Z,1.23
2023-02-12T23:23:00.759Z,1.00
2023-02-12T23:28:04.098Z,1.20
2023-02-12T23:33:07.467Z,1.10
2023-02-12T23:38:12.221Z,1.20
2023-02-12T23:43:15.687Z,0.90
2023-02-12T23:48:18.906Z,1.00
2023-02-12T23:53:23.526Z,1.20
2023-02-12T23:58:27.082Z,1.40
